Time;durP1;ratioP1;P1;durP2;ratioP2;P2;SDS_P1;SDS_P2;PMS_P1;PMS_P2;Temp;Humidity;BMP_temperature;BMP_pressure;BME280_temperature;BME280_humidity;BME280_pressure;Samples;Min_cycle;Max_cycle;Signal;HPM_P1;HPM_P2
2022/10/25 00:01:29;;;;;;;50.72;19.65;;;9.20;99.90;;;9.70;100.00;99128.59;4966327;28;129308;-77
2022/10/25 00:03:58;;;;;;;43.17;19.73;;;9.10;99.90;;;9.69;100.00;99121.59;4950657;28;120894;-76
2022/10/25 00:06:26;;;;;;;42.55;20.23;;;9.20;99.90;;;9.73;100.00;99129.09;4966227;28;121925;-75
2022/10/25 00:08:55;;;;;;;48.60;20.52;;;9.20;99.90;;;9.68;100.00;99124.63;4940719;28;129346;-75
2022/10/25 00:11:27;;;;;;;44.20;19.52;;;9.10;99.90;;;9.67;100.00;99123.03;4965552;28;130152;-74
2022/10/25 00:13:58;;;;;;;44.58;19.75;;;9.10;99.90;;;9.69;100.00;99116.19;4951127;28;119199;-74
2022/10/25 00:16:31;;;;;;;42.83;19.67;;;9.10;99.90;;;9.71;100.00;99124.78;4966688;28;119354;-75
2022/10/25 00:18:59;;;;;;;44.47;20.05;;;9.10;99.90;;;9.65;100.00;99120.63;4965751;28;130288;-75
2022/10/25 00:21:28;;;;;;;35.78;18.80;;;9.10;99.90;;;9.62;100.00;99115.03;4965680;28;129356;-75
2022/10/25 00:23:56;;;;;;;47.03;21.13;;;9.10;99.90;;;9.64;100.00;99119.00;4948688;28;120151;-75
2022/10/25 00:26:25;;;;;;;46.38;19.58;;;9.10;99.90;;;9.58;100.00;99109.44;4935172;28;118631;-75
2022/10/25 00:28:54;;;;;;;40.88;18.77;;;9.10;99.90;;;9.61;100.00;99114.22;4948696;28;129621;-75
2022/10/25 00:31:24;;;;;;;46.13;19.80;;;9.10;99.90;;;9.64;100.00;99121.72;4915789;28;128203;-76
2022/10/25 00:33:54;;;;;;;42.28;18.08;;;9.10;99.90;;;9.66;100.00;99114.09;4949608;28;119690;-76
2022/10/25 00:36:25;;;;;;;41.47;19.15;;;9.10;99.90;;;9.62;100.00;99115.84;4946933;28;119534;-76
2022/10/25 00:38:56;;;;;;;43.72;19.35;;;9.10;99.90;;;9.57;100.00;99110.56;4916150;28;129489;-77
2022/10/25 00:41:28;;;;;;;37.35;18.15;;;9.10;99.90;;;9.59;100.00;99126.50;4946861;28;129689;-75
2022/10/25 00:44:22;;;;;;;37.08;18.92;;;9.10;99.90;;;9.61;100.00;99130.47;4947222;28;119502;-77
2022/10/25 00:46:52;;;;;;;39.10;19.23;;;9.10;99.90;;;9.57;100.00;99132.25;4950716;28;119781;-74
2022/10/25 00:49:23;;;;;;;38.33;18.73;;;9.10;99.90;;;9.45;100.00;99115.78;4932150;28;129318;-76
2022/10/25 00:51:58;;;;;;;40.90;20.17;;;9.00;99.90;;;9.33;100.00;99113.66;4946856;28;128841;-75
2022/10/25 00:54:32;;;;;;;45.35;20.95;;;9.00;99.90;;;9.33;100.00;99109.06;4946562;28;122096;-75
2022/10/25 00:57:08;;;;;;;39.97;17.65;;;9.00;99.90;;;9.35;100.00;99100.63;4947474;28;122102;-75
2022/10/25 00:59:37;;;;;;;44.78;19.08;;;9.00;99.90;;;9.42;100.00;99094.75;4948597;28;130719;-77
2022/10/25 01:02:06;;;;;;;39.08;19.35;;;9.00;99.90;;;9.45;100.00;99088.69;4933212;28;129285;-77
2022/10/25 01:04:37;;;;;;;48.33;19.67;;;9.00;99.90;;;9.46;100.00;99079.47;4947539;28;120766;-76
2022/10/25 01:07:05;;;;;;;46.17;18.20;;;9.00;99.90;;;9.40;100.00;99069.88;4945456;28;121351;-76
2022/10/25 01:09:36;;;;;;;50.47;18.15;;;9.00;99.90;;;9.34;100.00;99071.94;4930631;28;129760;-78
2022/10/25 01:12:05;;;;;;;50.38;20.00;;;8.90;99.90;;;9.35;100.00;99066.19;4946927;28;129334;-78
2022/10/25 01:14:47;;;;;;;68.35;21.08;;;8.90;99.90;;;9.37;100.00;99075.94;4946127;28;119608;-79
2022/10/25 01:17:32;;;;;;;60.22;20.30;;;9.00;99.90;;;9.40;100.00;99072.59;4928160;28;119896;-74
2022/10/25 01:20:51;;;;;;;66.47;20.42;;;9.00;99.90;;;9.38;100.00;99077.50;4944229;28;129736;-74
2022/10/25 01:23:39;;;;;;;;;;;9.00;99.90;;;9.37;100.00;99081.34;4927809;28;129408;-76
2022/10/25 01:26:46;;;;;;;51.97;19.60;;;9.00;99.90;;;9.40;100.00;99086.13;4929252;28;118832;-76
2022/10/25 01:29:36;;;;;;;48.20;19.60;;;9.00;99.90;;;9.40;100.00;99092.34;4931125;28;119622;-73
2022/10/25 01:32:11;;;;;;;55.80;19.38;;;9.00;99.90;;;9.42;100.00;99089.31;4946125;28;129602;-75
2022/10/25 01:34:47;;;;;;;56.45;19.45;;;9.00;99.90;;;9.44;100.00;99096.03;4949317;28;128942;-76
2022/10/25 01:37:26;;;;;;;69.03;20.50;;;9.00;1.00;;;9.48;100.00;99088.06;4964461;28;119514;-74
2022/10/25 01:40:04;;;;;;;46.63;19.55;;;9.00;1.00;;;9.52;100.00;99094.44;4950587;28;119159;-74
2022/10/25 01:42:41;;;;;;;64.13;19.13;;;9.00;1.00;;;9.49;100.00;99092.34;4963989;28;130298;-75
2022/10/25 01:45:16;;;;;;;75.88;21.77;;;9.00;1.00;;;9.47;100.00;99102.72;4964744;28;130310;-73
2022/10/25 01:47:52;;;;;;;51.00;19.52;;;9.00;1.00;;;9.47;100.00;99100.00;4963871;28;122686;-75
2022/10/25 01:50:26;;;;;;;49.90;20.00;;;9.00;1.00;;;9.48;100.00;99094.28;4964547;28;121992;-74
2022/10/25 01:52:55;;;;;;;46.13;17.52;;;9.00;1.00;;;9.49;100.00;99104.00;4964753;28;130165;-75
2022/10/25 01:55:31;;;;;;;43.53;18.08;;;9.00;1.00;;;9.50;100.00;99097.47;4951842;28;128964;-75
2022/10/25 01:58:13;;;;;;;35.92;16.50;;;9.00;1.00;;;9.48;100.00;99096.97;4951684;28;117607;-75
2022/10/25 02:00:57;;;;;;;44.55;17.88;;;9.00;1.00;;;9.49;100.00;99093.16;4966351;28;119519;-73
2022/10/25 02:03:33;;;;;;;48.45;17.52;;;9.00;1.00;;;9.46;100.00;99091.09;4966342;28;129704;-73
2022/10/25 02:06:21;;;;;;;34.75;16.83;;;9.00;1.00;;;9.46;100.00;99090.31;4966061;28;129844;-72
2022/10/25 02:08:59;;;;;;;49.72;17.95;;;9.00;1.00;;;9.46;100.00;99090.31;4951185;28;119886;-74
2022/10/25 02:11:31;;;;;;;48.65;15.95;;;9.00;1.00;;;9.41;100.00;99087.72;4966082;28;119364;-75
2022/10/25 02:14:10;;;;;;;34.33;15.63;;;9.00;1.00;;;9.44;100.00;99103.34;4965193;28;129938;-74
2022/10/25 02:16:44;;;;;;;48.78;18.45;;;9.00;1.00;;;9.40;100.00;99091.56;4964249;28;129626;-74
2022/10/25 02:19:19;;;;;;;35.75;17.05;;;9.00;1.00;;;9.38;100.00;99099.19;4950359;28;119425;-76
2022/10/25 02:21:50;;;;;;;40.78;17.55;;;9.00;1.00;;;9.37;100.00;99092.19;4964296;28;119381;-75
2022/10/25 02:24:23;;;;;;;39.53;17.60;;;9.00;1.00;;;9.37;100.00;99087.56;4945909;28;130463;-75
2022/10/25 02:26:53;;;;;;;44.83;17.73;;;9.00;1.00;;;9.40;100.00;99088.84;4961812;28;129397;-76
2022/10/25 02:29:23;;;;;;;41.53;18.92;;;9.00;1.00;;;9.42;100.00;99089.31;4962198;28;119590;-76
2022/10/25 02:31:52;;;;;;;38.65;17.70;;;9.00;1.00;;;9.42;100.00;99083.91;4932711;28;119237;-75
2022/10/25 02:34:22;;;;;;;43.03;17.73;;;9.00;1.00;;;9.40;100.00;99080.72;4932482;28;129382;-73
2022/10/25 02:36:52;;;;;;;39.38;17.33;;;9.00;1.00;;;9.35;100.00;99077.03;4948503;28;129921;-74
2022/10/25 02:39:22;;;;;;;41.05;18.98;;;9.00;1.00;;;9.34;100.00;99072.72;4947471;28;120787;-74
2022/10/25 02:41:50;;;;;;;38.45;16.63;;;9.00;1.00;;;9.34;100.00;99077.34;4949028;28;121527;-73
2022/10/25 02:44:19;;;;;;;40.22;17.48;;;9.00;1.00;;;9.34;100.00;99078.13;4963764;28;129926;-75
2022/10/25 02:46:47;;;;;;;44.83;19.35;;;9.00;1.00;;;9.38;100.00;99077.50;4963603;28;129265;-74
2022/10/25 02:49:16;;;;;;;54.75;19.05;;;9.00;1.00;;;9.40;100.00;99080.72;4963827;28;120013;-73
2022/10/25 02:51:46;;;;;;;41.22;18.42;;;9.00;1.00;;;9.44;100.00;99081.66;4964035;28;119623;-74
2022/10/25 02:54:14;;;;;;;43.22;19.40;;;9.00;1.00;;;9.44;100.00;99076.25;4963271;28;129164;-73
2022/10/25 02:56:42;;;;;;;38.83;18.48;;;9.00;1.00;;;9.42;100.00;99081.19;4964902;28;129599;-76
2022/10/25 02:59:12;;;;;;;38.70;17.65;;;9.00;1.00;;;9.41;100.00;99074.19;4963666;28;120168;-76
2022/10/25 03:01:41;;;;;;;45.13;20.33;;;9.00;1.00;;;9.45;100.00;99062.41;4967288;28;119735;-74
2022/10/25 03:04:10;;;;;;;40.22;18.52;;;9.00;1.00;;;9.48;100.00;99069.09;4966933;28;129632;-74
2022/10/25 03:06:38;;;;;;;38.60;17.85;;;9.00;1.00;;;9.49;100.00;99066.09;4952735;28;128852;-75
2022/10/25 03:09:08;;;;;;;39.65;18.63;;;9.00;1.00;;;9.52;100.00;99067.34;4949910;28;119853;-75
2022/10/25 03:11:37;;;;;;;40.17;20.08;;;9.00;1.00;;;9.52;100.00;99056.50;4952919;28;118247;-75
2022/10/25 03:14:05;;;;;;;40.22;19.58;;;9.00;1.00;;;9.55;100.00;99061.31;4966724;28;130226;-76
2022/10/25 03:16:33;;;;;;;44.63;21.13;;;9.10;1.00;;;9.58;100.00;99066.09;4968051;28;129491;-75
2022/10/25 03:19:03;;;;;;;36.88;18.52;;;9.10;1.00;;;9.63;100.00;99057.84;4968130;28;120018;-73
2022/10/25 03:21:31;;;;;;;41.65;20.05;;;9.10;1.00;;;9.66;100.00;99062.63;4952710;28;117401;-74
2022/10/25 03:24:00;;;;;;;46.22;19.77;;;9.10;1.00;;;9.63;100.00;99057.84;4966619;28;129710;-75
2022/10/25 03:26:31;;;;;;;35.92;17.65;;;9.10;1.00;;;9.61;100.00;99049.19;4953394;28;128379;-74
2022/10/25 03:28:59;;;;;;;37.03;17.60;;;9.10;1.00;;;9.62;100.00;99045.41;4949757;28;121772;-75
2022/10/25 03:31:27;;;;;;;45.50;19.25;;;9.10;1.00;;;9.63;100.00;99046.19;4945083;28;121316;-75
2022/10/25 03:33:56;;;;;;;46.92;17.38;;;9.10;1.00;;;9.64;100.00;99043.16;4946012;28;129901;-75
2022/10/25 03:36:25;;;;;;;51.38;18.90;;;9.10;1.00;;;9.63;100.00;99046.19;4944801;28;129086;-74
2022/10/25 03:38:53;;;;;;;39.90;18.52;;;9.10;1.00;;;9.62;100.00;99042.69;4944211;28;119980;-74
2022/10/25 03:41:22;;;;;;;51.55;18.50;;;9.10;1.00;;;9.63;100.00;99057.00;4929908;28;117020;-74
2022/10/25 03:43:52;;;;;;;52.40;18.27;;;9.20;1.00;;;9.63;100.00;99055.13;4944473;28;130024;-74
2022/10/25 03:46:21;;;;;;;40.17;17.67;;;9.10;1.00;;;9.63;100.00;99049.72;4945276;28;129340;-75
2022/10/25 03:48:49;;;;;;;46.80;18.33;;;9.20;1.00;;;9.53;100.00;99052.69;4930299;28;118638;-76
2022/10/25 03:51:18;;;;;;;47.90;18.10;;;9.10;1.00;;;9.59;100.00;99058.78;4945327;28;119539;-75
2022/10/25 03:53:48;;;;;;;53.20;20.20;;;9.10;1.00;;;9.63;100.00;99057.84;4927671;28;129005;-74
2022/10/25 03:56:16;;;;;;;40.22;18.92;;;9.20;1.00;;;9.53;100.00;99056.19;4944533;28;130031;-74
2022/10/25 03:58:45;;;;;;;38.90;18.48;;;9.10;1.00;;;9.53;100.00;99058.91;4945382;28;119600;-76
2022/10/25 04:01:14;;;;;;;44.80;19.88;;;9.10;1.00;;;9.58;100.00;99055.25;4946225;28;119776;-75
2022/10/25 04:03:44;;;;;;;51.30;20.73;;;9.20;1.00;;;9.59;100.00;99056.84;4945153;28;129802;-72
2022/10/25 04:06:12;;;;;;;48.72;20.85;;;9.20;1.00;;;9.57;100.00;99059.09;4944470;28;128555;-71
2022/10/25 04:08:41;;;;;;;44.63;19.83;;;9.20;1.00;;;9.61;100.00;99060.03;4927745;28;120312;-76
2022/10/25 04:11:09;;;;;;;41.45;18.90;;;9.20;1.00;;;9.61;100.00;99054.63;4946188;28;119636;-76
2022/10/25 04:13:38;;;;;;;45.45;19.60;;;9.20;1.00;;;9.60;100.00;99046.81;4945788;28;130249;-74
2022/10/25 04:16:07;;;;;;;43.67;19.52;;;9.20;1.00;;;9.61;100.00;99038.38;4945747;28;129659;-73
2022/10/25 04:18:38;;;;;;;49.85;20.00;;;9.20;1.00;;;9.64;100.00;99029.59;4945800;28;121847;-75
2022/10/25 04:21:06;;;;;;;48.80;21.17;;;9.20;1.00;;;9.57;100.00;99026.59;4948164;28;121755;-73
2022/10/25 04:23:35;;;;;;;52.78;20.95;;;9.10;1.00;;;9.57;100.00;99021.16;4945863;28;129922;-74
2022/10/25 04:26:04;;;;;;;45.13;20.75;;;9.10;1.00;;;9.56;100.00;99005.22;4944923;28;130240;-73
2022/10/25 04:28:32;;;;;;;45.05;20.40;;;9.10;1.00;;;9.51;100.00;99011.59;4946080;28;118679;-73
2022/10/25 04:31:00;;;;;;;46.63;20.90;;;9.10;1.00;;;9.51;100.00;99017.00;4948676;28;119460;-73
2022/10/25 04:33:29;;;;;;;43.75;19.70;;;9.20;1.00;;;9.54;100.00;99011.75;4947052;28;130616;-75
2022/10/25 04:35:59;;;;;;;43.80;17.75;;;9.20;1.00;;;9.56;100.00;99019.56;4951347;28;129220;-72
2022/10/25 04:38:27;;;;;;;39.85;18.92;;;9.20;1.00;;;9.58;100.00;99016.53;4933203;28;119623;-73
2022/10/25 04:40:57;;;;;;;43.63;18.40;;;9.20;1.00;;;9.59;100.00;99013.50;4950857;28;119525;-71
2022/10/25 04:43:29;;;;;;;36.42;18.25;;;9.20;1.00;;;9.63;100.00;99022.63;4950327;28;130818;-73
2022/10/25 04:46:00;;;;;;;39.85;18.55;;;9.20;1.00;;;9.67;100.00;99015.44;4937298;28;128492;-71
2022/10/25 04:48:30;;;;;;;35.90;17.23;;;9.20;1.00;;;9.67;100.00;99026.25;4951668;28;119628;-74
2022/10/25 04:51:01;;;;;;;40.03;18.48;;;9.20;1.00;;;9.65;100.00;99017.66;4933319;28;118685;-73
2022/10/25 04:53:30;;;;;;;35.70;17.33;;;9.30;1.00;;;9.67;100.00;99014.63;4949036;28;129802;-73
2022/10/25 04:55:59;;;;;;;42.05;18.73;;;9.30;1.00;;;9.69;100.00;99024.06;4934285;28;129464;-72
2022/10/25 04:58:29;;;;;;;40.30;19.75;;;9.30;1.00;;;9.74;100.00;99025.00;4945883;28;120277;-73
2022/10/25 05:01:01;;;;;;;43.55;19.42;;;9.30;1.00;;;9.80;100.00;99023.72;4947276;28;119301;-72
2022/10/25 05:03:30;;;;;;;44.42;20.52;;;9.30;1.00;;;9.84;100.00;99011.16;4930772;28;128814;-74
2022/10/25 05:06:08;;;;;;;44.20;22.60;;;9.40;1.00;;;9.82;100.00;99016.88;4943667;28;129408;-72
2022/10/25 05:08:38;;;;;;;46.25;21.88;;;9.30;1.00;;;9.84;100.00;99013.88;4942767;28;122298;-73
2022/10/25 05:11:08;;;;;;;51.47;23.40;;;9.40;1.00;;;9.85;100.00;99010.84;4944612;28;121973;-71
2022/10/25 05:13:38;;;;;;;46.75;22.10;;;9.40;1.00;;;9.88;100.00;99009.41;4945977;28;131053;-72
2022/10/25 05:16:09;;;;;;;45.83;22.38;;;9.40;1.00;;;9.84;100.00;99011.16;4948599;28;129184;-71
2022/10/25 05:18:37;;;;;;;43.35;21.67;;;9.40;1.00;;;9.91;100.00;99019.63;4946094;28;119664;-72
2022/10/25 05:21:07;;;;;;;48.95;23.95;;;9.40;1.00;;;9.87;100.00;99018.66;4946742;28;119477;-72
2022/10/25 05:23:36;;;;;;;44.63;23.52;;;9.40;1.00;;;9.86;100.00;99017.03;4945629;28;129843;-72
2022/10/25 05:26:07;;;;;;;45.90;22.40;;;9.40;1.00;;;9.87;100.00;99026.78;4932176;28;130834;-72
2022/10/25 05:28:38;;;;;;;50.28;22.63;;;9.40;1.00;;;9.92;100.00;99026.59;4947052;28;119332;-71
2022/10/25 05:31:08;;;;;;;40.58;19.58;;;9.40;1.00;;;9.87;100.00;99030.28;4949833;28;119553;-70
2022/10/25 05:33:36;;;;;;;38.03;18.80;;;9.40;1.00;;;9.88;100.00;99031.09;4946602;28;129788;-72
2022/10/25 05:36:07;;;;;;;43.95;19.35;;;9.40;1.00;;;9.93;100.00;99035.56;4933646;28;129131;-72
2022/10/25 05:38:35;;;;;;;41.42;19.50;;;9.50;1.00;;;9.97;100.00;99031.06;4948266;28;119834;-72
2022/10/25 05:41:04;;;;;;;40.88;19.33;;;9.50;1.00;;;9.99;100.00;99035.06;4944299;28;119154;-71
2022/10/25 05:43:32;;;;;;;39.55;19.40;;;9.50;1.00;;;10.01;100.00;99035.53;4943302;28;130027;-70
2022/10/25 05:46:07;;;;;;;41.90;20.75;;;9.50;1.00;;;9.99;100.00;99032.38;4942553;28;129507;-73
2022/10/25 05:48:37;;;;;;;41.08;20.70;;;9.50;1.00;;;9.98;100.00;99028.03;4943305;28;119957;-72
2022/10/25 05:51:13;;;;;;;43.28;20.83;;;9.50;1.00;;;9.95;100.00;99034.09;4928795;28;118733;-71
2022/10/25 05:53:46;;;;;;;45.37;21.03;;;9.50;1.00;;;9.93;100.00;99032.84;4943555;28;130128;-71
2022/10/25 05:56:15;;;;;;;45.55;21.00;;;9.50;1.00;;;9.96;100.00;99027.59;4933671;28;129890;-71
2022/10/25 05:58:44;;;;;;;41.67;20.05;;;9.50;1.00;;;9.99;100.00;99032.38;4949393;28;122497;-73
2022/10/25 06:01:15;;;;;;;41.72;19.60;;;9.50;1.00;;;9.98;100.00;99033.47;4932403;28;121766;-73
2022/10/25 06:03:44;;;;;;;43.03;19.42;;;9.50;1.00;;;10.02;100.00;99031.72;4949584;28;129759;-72
2022/10/25 06:06:14;;;;;;;45.50;20.50;;;9.50;1.00;;;10.09;100.00;99028.53;4942576;28;129577;-73
2022/10/25 06:08:43;;;;;;;37.92;19.23;;;9.60;1.00;;;10.12;100.00;99029.81;4947194;28;119857;-72
2022/10/25 06:11:14;;;;;;;41.92;19.48;;;9.60;1.00;;;10.10;100.00;99027.41;4946596;28;120305;-72
2022/10/25 06:13:43;;;;;;;41.47;19.60;;;9.60;1.00;;;10.14;100.00;99030.28;4947412;28;130450;-72
2022/10/25 06:16:14;;;;;;;40.17;19.23;;;9.60;1.00;;;10.13;100.00;99031.38;4944300;28;129994;-73
2022/10/25 06:18:43;;;;;;;41.55;18.77;;;9.60;1.00;;;10.15;100.00;99029.19;4957938;28;119491;-71
2022/10/25 06:21:16;;;;;;;42.97;18.83;;;9.60;1.00;;;10.13;100.00;99031.38;4929892;28;118259;-72
2022/10/25 06:23:45;;;;;;;41.33;18.67;;;9.60;1.00;;;10.15;100.00;99023.75;4943787;28;130285;-72
2022/10/25 06:26:16;;;;;;;42.72;17.95;;;9.60;1.00;;;10.18;100.00;99033.97;4946298;28;129438;-73
2022/10/25 06:28:45;;;;;;;42.80;19.33;;;9.70;1.00;;;10.27;100.00;99023.91;4930789;28;118996;-70
2022/10/25 06:31:15;;;;;;;40.63;17.65;;;9.70;1.00;;;10.25;100.00;99028.84;4951065;28;121151;-74
2022/10/25 06:33:44;;;;;;;45.00;18.50;;;9.70;1.00;;;10.28;100.00;99027.41;4947219;28;129960;-72
2022/10/25 06:36:17;;;;;;;40.47;16.35;;;9.70;1.00;;;10.29;100.00;99024.38;4946500;28;129904;-74
2022/10/25 06:38:47;;;;;;;40.80;19.00;;;9.80;1.00;;;10.28;100.00;99025.47;4946200;28;120136;-73
2022/10/25 06:41:18;;;;;;;41.38;18.65;;;9.80;1.00;;;10.36;100.00;99030.16;4948778;28;119792;-72
2022/10/25 06:43:46;;;;;;;41.13;19.85;;;9.80;1.00;;;10.33;100.00;99033.50;4947596;28;130241;-72
2022/10/25 06:46:21;;;;;;;45.72;19.70;;;9.80;1.00;;;10.35;100.00;99033.97;4930369;28;129028;-73
2022/10/25 06:48:51;;;;;;;40.75;18.85;;;9.80;1.00;;;10.31;100.00;99032.97;4943035;28;121611;-74
2022/10/25 06:51:22;;;;;;;41.67;19.48;;;9.80;1.00;;;10.32;100.00;99022.94;4946442;28;121695;-74
2022/10/25 06:53:54;;;;;;;48.80;21.25;;;9.80;1.00;;;10.30;100.00;99033.28;4944843;28;130325;-74
2022/10/25 06:56:24;;;;;;;45.35;21.88;;;9.70;1.00;;;10.27;100.00;99029.31;4944721;28;130847;-73
2022/10/25 06:58:52;;;;;;;51.15;23.20;;;9.70;1.00;;;10.24;100.00;99028.03;4944502;28;119696;-73
2022/10/25 07:01:22;;;;;;;47.88;24.30;;;9.70;1.00;;;10.25;100.00;99028.84;4930246;28;118484;-72
2022/10/25 07:03:52;;;;;;;44.33;22.13;;;9.80;1.00;;;10.31;100.00;99037.63;4944508;28;129868;-72
2022/10/25 07:06:25;;;;;;;48.83;24.98;;;9.80;1.00;;;10.34;100.00;99032.38;4954915;28;129218;-72
2022/10/25 07:08:56;;;;;;;43.22;23.15;;;9.80;1.00;;;10.41;100.00;99021.84;4966315;28;121099;-74
2022/10/25 07:11:26;;;;;;;48.30;22.42;;;9.90;1.00;;;10.53;100.00;99017.66;4964363;28;119296;-73
2022/10/25 07:13:57;;;;;;;49.97;23.40;;;9.90;1.00;;;10.60;100.00;99017.97;4964082;28;129918;-72
2022/10/25 07:16:27;;;;;;;53.10;26.27;;;10.00;1.00;;;10.62;100.00;99021.16;4935300;28;127964;-71
2022/10/25 07:18:59;;;;;;;48.75;24.33;;;10.00;1.00;;;10.66;100.00;99016.69;4957404;28;119546;-71
2022/10/25 07:21:31;;;;;;;57.53;24.35;;;10.00;1.00;;;10.67;100.00;99012.81;4932363;28;119097;-71
2022/10/25 07:24:00;;;;;;;49.10;23.35;;;10.00;99.90;;;10.70;100.00;99001.31;4930752;28;129622;-74
2022/10/25 07:26:31;;;;;;;55.22;26.25;;;10.10;99.90;;;10.75;100.00;98997.63;4945496;28;129400;-73
2022/10/25 07:29:01;;;;;;;51.40;23.38;;;10.10;99.90;;;10.82;100.00;98997.16;4941772;28;119259;-76
2022/10/25 07:31:33;;;;;;;50.47;24.70;;;10.20;99.90;;;10.97;100.00;98991.19;4923359;28;120210;-73
2022/10/25 07:34:04;;;;;;;50.45;25.13;;;10.30;99.90;;;10.97;100.00;98983.03;4924865;28;130094;-73
2022/10/25 07:36:34;;;;;;;48.50;23.00;;;10.30;99.90;;;11.01;100.00;98983.97;4895699;28;129960;-73
2022/10/25 07:39:04;;;;;;;42.10;23.58;;;10.30;99.90;;;10.99;100.00;98980.78;4911634;28;120601;-73
2022/10/25 07:41:32;;;;;;;43.75;21.00;;;10.30;99.90;;;11.07;100.00;98987.28;4910644;28;121870;-73
2022/10/25 07:44:01;;;;;;;40.25;21.38;;;10.40;99.90;;;11.06;100.00;98997.34;4944737;28;130460;-71
2022/10/25 07:46:29;;;;;;;42.50;19.45;;;10.30;99.90;;;11.03;100.00;99003.47;4946027;28;128583;-75
2022/10/25 07:48:58;;;;;;;40.33;18.60;;;10.30;99.90;;;11.06;100.00;99002.78;4945996;28;120465;-73
2022/10/25 07:51:26;;;;;;;37.85;18.10;;;10.30;99.90;;;11.12;100.00;99004.19;4946820;28;119323;-72
2022/10/25 07:53:56;;;;;;;38.72;18.50;;;10.30;99.90;;;11.14;100.00;98993.81;4946820;28;130152;-74
2022/10/25 07:56:24;;;;;;;39.58;18.75;;;10.30;99.90;;;11.12;100.00;98998.75;4941608;28;130999;-74
2022/10/25 07:58:53;;;;;;;37.35;17.95;;;10.30;99.90;;;11.09;100.00;98996.69;4930498;28;119847;-72
2022/10/25 08:01:24;;;;;;;46.33;18.38;;;10.30;99.90;;;11.09;100.00;99002.13;4943278;28;119411;-75
2022/10/25 08:03:54;;;;;;;34.97;17.50;;;10.40;99.90;;;11.18;100.00;99001.31;4941970;28;130039;-73
2022/10/25 08:06:25;;;;;;;38.08;17.75;;;10.40;99.90;;;11.22;100.00;99000.31;4943187;28;129551;-71
2022/10/25 08:08:55;;;;;;;43.08;17.77;;;10.40;99.90;;;11.32;100.00;98999.13;4942689;28;119646;-74
2022/10/25 08:11:23;;;;;;;35.95;16.65;;;10.50;99.90;;;11.35;100.00;99001.19;4943291;28;119378;-74
2022/10/25 08:13:52;;;;;;;35.60;17.40;;;10.50;99.90;;;11.43;100.00;98994.91;4943466;28;130698;-73
2022/10/25 08:16:21;;;;;;;35.03;17.48;;;10.60;99.90;;;11.53;100.00;98993.75;4945682;28;129675;-73
2022/10/25 08:18:49;;;;;;;37.63;17.60;;;10.70;99.90;;;11.55;100.00;98996.94;4945471;28;119763;-71
2022/10/25 08:21:17;;;;;;;32.00;15.68;;;10.70;99.90;;;11.56;100.00;98987.66;4931478;28;117310;-73
2022/10/25 08:23:46;;;;;;;37.97;17.30;;;10.60;99.90;;;11.66;100.00;98987.25;4945485;28;130113;-73
2022/10/25 08:26:16;;;;;;;36.08;16.65;;;10.70;99.90;;;11.80;100.00;98986.19;4945087;28;129594;-74
2022/10/25 08:28:45;;;;;;;35.70;16.83;;;10.80;99.90;;;11.88;100.00;98982.59;4929653;28;121700;-74
2022/10/25 08:31:13;;;;;;;34.03;17.13;;;10.80;99.90;;;11.95;100.00;98987.53;4947012;28;122105;-75
2022/10/25 08:33:42;;;;;;;35.33;16.38;;;10.90;99.90;;;12.04;100.00;98985.53;4944629;28;129868;-73
2022/10/25 08:36:11;;;;;;;35.45;17.60;;;10.90;99.90;;;12.15;100.00;98975.81;4913769;28;129363;-73
2022/10/25 08:38:39;;;;;;;41.72;18.17;;;11.00;99.90;;;12.13;100.00;98982.75;4936697;28;119789;-75
2022/10/25 08:41:16;;;;;;;41.22;17.70;;;11.00;99.90;;;12.16;100.00;98982.88;4941161;28;119491;-74
2022/10/25 08:44:16;;;;;;;40.60;18.52;;;11.10;99.90;;;12.26;100.00;98980.88;4946943;28;130103;-73
2022/10/25 08:46:55;;;;;;;38.47;17.85;;;11.10;99.90;;;12.32;100.00;98982.25;4944267;28;129643;-75
2022/10/25 08:49:32;;;;;;;34.90;17.45;;;11.20;99.90;;;12.26;100.00;98980.88;4943870;28;119817;-74
2022/10/25 08:52:01;;;;;;;35.55;16.95;;;11.20;99.90;;;12.33;100.00;98986.56;4929692;28;118161;-74
2022/10/25 08:54:35;;;;;;;38.83;18.60;;;11.10;99.90;;;12.42;100.00;98976.38;4942213;28;130608;-75
2022/10/25 08:57:14;;;;;;;34.58;18.23;;;11.30;99.90;;;12.50;100.00;98991.81;4945413;28;129464;-75
2022/10/25 08:59:49;;;;;;;34.72;16.42;;;11.40;99.90;;;12.53;100.00;98982.97;4943476;28;119566;-74
2022/10/25 09:02:32;;;;;;;37.00;17.83;;;11.40;99.90;;;12.64;100.00;98980.63;4943280;28;119259;-73
2022/10/25 09:05:01;;;;;;;38.65;17.23;;;11.40;99.90;;;12.70;100.00;98983.91;4941746;28;129930;-74
2022/10/25 09:07:55;;;;;;;32.97;16.60;;;11.40;99.90;;;12.85;100.00;98977.81;4928818;28;128424;-79
2022/10/25 09:10:39;;;;;;;33.85;16.15;;;11.60;99.90;;;12.95;100.00;98974.63;4943027;28;120721;-73
2022/10/25 09:13:25;;;;;;;32.83;16.23;;;11.70;99.90;;;12.90;100.00;98974.88;4943470;28;119345;-74
2022/10/25 09:16:04;;;;;;;36.75;17.58;;;11.70;99.90;;;12.97;100.00;98976.25;4942369;28;129899;-75
2022/10/25 09:18:45;;;;;;;36.65;17.30;;;11.70;99.90;;;12.75;100.00;98980.97;4942543;28;129541;-75
2022/10/25 09:21:21;;;;;;;37.15;17.70;;;11.60;99.90;;;12.85;100.00;98974.28;4941883;28;122231;-74
2022/10/25 09:23:58;;;;;;;33.17;16.93;;;11.50;99.90;;;12.90;100.00;98977.59;4942666;28;121978;-74
2022/10/25 09:26:41;;;;;;;31.98;16.27;;;11.60;99.90;;;12.87;100.00;98981.00;4941836;28;130081;-76
2022/10/25 09:29:31;;;;;;;34.67;17.55;;;11.60;99.90;;;12.69;100.00;98972.22;4908948;28;128832;-74
2022/10/25 09:32:03;;;;;;;39.50;20.45;;;11.50;99.90;;;12.63;100.00;98964.63;4912118;28;118619;-78
2022/10/25 09:34:33;;;;;;;33.80;17.48;;;11.40;99.90;;;12.54;100.00;98973.69;4943505;28;119772;-74
2022/10/25 09:37:16;;;;;;;34.67;16.20;;;11.40;99.90;;;12.44;100.00;98967.88;4942941;28;130019;-74
2022/10/25 09:39:50;;;;;;;36.00;17.35;;;11.30;99.90;;;12.25;100.00;98966.47;4942813;28;130232;-75
2022/10/25 09:42:25;;;;;;;37.78;18.08;;;11.10;99.90;;;12.25;100.00;98962.94;4943123;28;119128;-76
2022/10/25 09:44:59;;;;;;;42.17;18.90;;;11.10;99.90;;;12.18;100.00;98949.88;4928616;28;119392;-76
2022/10/25 09:47:41;;;;;;;36.22;16.85;;;11.10;99.90;;;12.04;100.00;98947.47;4941490;28;129887;-75
2022/10/25 09:50:19;;;;;;;39.10;18.75;;;11.10;99.90;;;11.97;100.00;98952.66;4942401;28;129671;-77
2022/10/25 09:53:01;;;;;;;35.45;17.92;;;11.00;99.90;;;11.80;100.00;98943.50;4942635;28;119450;-75
2022/10/25 09:55:38;;;;;;;38.53;19.42;;;10.90;99.90;;;11.81;100.00;98947.00;4928156;28;118947;-77
2022/10/25 09:58:09;;;;;;;41.72;19.75;;;10.90;99.90;;;11.77;100.00;98949.59;4942177;28;129950;-75
2022/10/25 10:00:40;;;;;;;39.53;19.80;;;10.90;99.90;;;11.73;100.00;98950.59;4944475;28;129557;-73
2022/10/25 10:03:13;;;;;;;43.53;19.50;;;10.80;99.90;;;11.72;100.00;98947.09;4942895;28;120066;-76
2022/10/25 10:05:49;;;;;;;49.15;20.67;;;10.90;99.90;;;11.71;100.00;98953.63;4954975;28;119481;-75
2022/10/25 10:08:17;;;;;;;45.27;19.03;;;10.80;99.90;;;11.69;100.00;98955.91;4948760;28;130085;-74
2022/10/25 10:10:50;;;;;;;49.15;21.05;;;10.80;99.90;;;11.63;100.00;98954.50;4961057;28;129650;-75
2022/10/25 10:13:27;;;;;;;43.38;20.77;;;10.70;99.90;;;11.59;100.00;98950.84;4960651;28;121760;-74
2022/10/25 10:16:00;;;;;;;45.65;21.50;;;10.70;99.90;;;11.46;100.00;98950.00;4961704;28;122018;-72
2022/10/25 10:18:32;;;;;;;37.58;20.13;;;10.60;99.90;;;11.37;100.00;98952.75;4961057;28;130426;-74
2022/10/25 10:21:05;;;;;;;48.53;22.15;;;10.60;99.90;;;11.35;100.00;98960.47;4961521;28;129262;-73
2022/10/25 10:23:44;;;;;;;43.58;20.70;;;10.60;99.90;;;11.33;100.00;98957.28;4962169;28;120584;-73
2022/10/25 10:26:21;;;;;;;51.63;23.08;;;10.60;99.90;;;11.33;100.00;98946.41;4946911;28;118273;-73